sensor_id;sensor_type;location;lat;lon;timestamp;pressure;altitude;pressure_sealevel;temperature;humidity
69127;BME280;56688;50.234;19.292;2023-03-19T00:00:20;98638.66;;;2.53;53.26
69127;BME280;56688;50.234;19.292;2023-03-19T00:02:47;98640.86;;;2.46;54.34
69127;BME280;56688;50.234;19.292;2023-03-19T00:05:17;98644.10;;;2.35;54.46
69127;BME280;56688;50.234;19.292;2023-03-19T00:07:44;98644.19;;;2.24;54.43
69127;BME280;56688;50.234;19.292;2023-03-19T00:10:11;98645.77;;;2.12;54.14
69127;BME280;56688;50.234;19.292;2023-03-19T00:12:38;98649.77;;;2.00;54.31
69127;BME280;56688;50.234;19.292;2023-03-19T00:15:05;98651.56;;;1.89;54.64
69127;BME280;56688;50.234;19.292;2023-03-19T00:17:34;98650.16;;;1.79;55.09
69127;BME280;56688;50.234;19.292;2023-03-19T00:20:02;98645.24;;;1.68;55.62
69127;BME280;56688;50.234;19.292;2023-03-19T00:22:28;98641.36;;;1.60;55.38
69127;BME280;56688;50.234;19.292;2023-03-19T00:24:55;98646.20;;;1.55;55.66
69127;BME280;56688;50.234;19.292;2023-03-19T00:27:22;98644.41;;;1.49;56.50
69127;BME280;56688;50.234;19.292;2023-03-19T00:29:49;98644.92;;;1.43;57.37
69127;BME280;56688;50.234;19.292;2023-03-19T00:32:16;98641.68;;;1.35;58.44
69127;BME280;56688;50.234;19.292;2023-03-19T00:34:43;98639.40;;;1.29;58.35
69127;BME280;56688;50.234;19.292;2023-03-19T00:37:10;98639.52;;;1.22;58.51
69127;BME280;56688;50.234;19.292;2023-03-19T00:39:37;98644.41;;;1.13;58.77
69127;BME280;56688;50.234;19.292;2023-03-19T00:42:05;98645.05;;;1.05;58.52
69127;BME280;56688;50.234;19.292;2023-03-19T00:44:32;98639.63;;;0.99;58.27
69127;BME280;56688;50.234;19.292;2023-03-19T00:47:01;98634.50;;;0.93;58.65
69127;BME280;56688;50.234;19.292;2023-03-19T00:49:28;98633.23;;;0.89;59.62
69127;BME280;56688;50.234;19.292;2023-03-19T00:51:55;98633.93;;;0.85;59.90
69127;BME280;56688;50.234;19.292;2023-03-19T00:54:21;98631.29;;;0.81;59.80
69127;BME280;56688;50.234;19.292;2023-03-19T00:56:48;98634.09;;;0.76;60.59
69127;BME280;56688;50.234;19.292;2023-03-19T00:59:16;98632.29;;;0.70;60.82
69127;BME280;56688;50.234;19.292;2023-03-19T01:01:42;98630.54;;;0.64;61.00
69127;BME280;56688;50.234;19.292;2023-03-19T01:04:09;98631.42;;;0.59;61.13
69127;BME280;56688;50.234;19.292;2023-03-19T01:06:36;98629.79;;;0.53;61.53
69127;BME280;56688;50.234;19.292;2023-03-19T01:09:03;98629.84;;;0.46;62.24
69127;BME280;56688;50.234;19.292;2023-03-19T01:11:30;98634.52;;;0.40;62.75
69127;BME280;56688;50.234;19.292;2023-03-19T01:13:57;98631.64;;;0.35;63.56
69127;BME280;56688;50.234;19.292;2023-03-19T01:16:24;98636.90;;;0.35;63.97
69127;BME280;56688;50.234;19.292;2023-03-19T01:18:52;98631.70;;;0.34;64.54
69127;BME280;56688;50.234;19.292;2023-03-19T01:21:19;98634.56;;;0.33;64.77
69127;BME280;56688;50.234;19.292;2023-03-19T01:23:48;98628.95;;;0.31;64.70
69127;BME280;56688;50.234;19.292;2023-03-19T01:26:14;98629.69;;;0.28;65.46
69127;BME280;56688;50.234;19.292;2023-03-19T01:28:43;98630.95;;;0.25;64.98
69127;BME280;56688;50.234;19.292;2023-03-19T01:31:10;98633.05;;;0.21;65.13
69127;BME280;56688;50.234;19.292;2023-03-19T01:33:51;98633.16;;;0.15;64.90
69127;BME280;56688;50.234;19.292;2023-03-19T01:36:30;98632.39;;;0.07;65.28
69127;BME280;56688;50.234;19.292;2023-03-19T01:39:00;98634.97;;;0.01;65.49
69127;BME280;56688;50.234;19.292;2023-03-19T01:41:27;98635.63;;;-0.03;65.86
69127;BME280;56688;50.234;19.292;2023-03-19T01:44:01;98635.45;;;-0.05;66.60
69127;BME280;56688;50.234;19.292;2023-03-19T01:46:36;98634.14;;;-0.07;66.68
69127;BME280;56688;50.234;19.292;2023-03-19T01:49:20;98628.86;;;-0.09;66.79
69127;BME280;56688;50.234;19.292;2023-03-19T01:51:54;98628.56;;;-0.11;67.15
69127;BME280;56688;50.234;19.292;2023-03-19T01:54:34;98628.25;;;-0.14;67.21
69127;BME280;56688;50.234;19.292;2023-03-19T01:57:13;98628.42;;;-0.19;67.36
69127;BME280;56688;50.234;19.292;2023-03-19T01:59:59;98627.95;;;-0.26;67.30
69127;BME280;56688;50.234;19.292;2023-03-19T02:02:43;98626.88;;;-0.35;67.56
69127;BME280;56688;50.234;19.292;2023-03-19T02:05:21;98629.10;;;-0.44;67.35
69127;BME280;56688;50.234;19.292;2023-03-19T02:07:57;98634.80;;;-0.52;67.70
69127;BME280;56688;50.234;19.292;2023-03-19T02:10:25;98631.78;;;-0.61;67.56
69127;BME280;56688;50.234;19.292;2023-03-19T02:12:54;98636.40;;;-0.69;67.88
69127;BME280;56688;50.234;19.292;2023-03-19T02:15:21;98634.25;;;-0.77;67.95
69127;BME280;56688;50.234;19.292;2023-03-19T02:17:48;98634.77;;;-0.85;68.43
69127;BME280;56688;50.234;19.292;2023-03-19T02:20:21;98637.41;;;-0.89;68.54
69127;BME280;56688;50.234;19.292;2023-03-19T02:22:59;98633.47;;;-0.90;68.56
69127;BME280;56688;50.234;19.292;2023-03-19T02:25:36;98638.77;;;-0.89;68.75
69127;BME280;56688;50.234;19.292;2023-03-19T02:28:06;98644.94;;;-0.87;69.15
69127;BME280;56688;50.234;19.292;2023-03-19T02:30:36;98644.84;;;-0.86;69.16
69127;BME280;56688;50.234;19.292;2023-03-19T02:33:11;98649.71;;;-0.86;69.35
69127;BME280;56688;50.234;19.292;2023-03-19T02:35:39;98649.90;;;-0.86;69.41
69127;BME280;56688;50.234;19.292;2023-03-19T02:38:09;98656.48;;;-0.87;69.40
69127;BME280;56688;50.234;19.292;2023-03-19T02:40:40;98656.17;;;-0.90;69.27
69127;BME280;56688;50.234;19.292;2023-03-19T02:43:09;98656.73;;;-0.95;69.43
69127;BME280;56688;50.234;19.292;2023-03-19T02:45:35;98657.53;;;-0.99;69.60
69127;BME280;56688;50.234;19.292;2023-03-19T02:48:02;98655.98;;;-1.02;69.91
69127;BME280;56688;50.234;19.292;2023-03-19T02:50:29;98651.05;;;-1.01;69.97
69127;BME280;56688;50.234;19.292;2023-03-19T02:52:56;98652.77;;;-1.01;70.22
69127;BME280;56688;50.234;19.292;2023-03-19T02:55:23;98650.42;;;-1.00;69.98
69127;BME280;56688;50.234;19.292;2023-03-19T02:57:50;98654.17;;;-1.01;70.13
69127;BME280;56688;50.234;19.292;2023-03-19T03:00:18;98656.27;;;-1.03;69.98
69127;BME280;56688;50.234;19.292;2023-03-19T03:02:46;98657.15;;;-1.08;69.97
69127;BME280;56688;50.234;19.292;2023-03-19T03:05:13;98663.45;;;-1.13;69.99
69127;BME280;56688;50.234;19.292;2023-03-19T03:07:40;98663.93;;;-1.18;70.06
69127;BME280;56688;50.234;19.292;2023-03-19T03:10:10;98666.35;;;-1.24;70.05
69127;BME280;56688;50.234;19.292;2023-03-19T03:12:37;98661.80;;;-1.31;69.76
69127;BME280;56688;50.234;19.292;2023-03-19T03:15:05;98660.92;;;-1.39;69.85
69127;BME280;56688;50.234;19.292;2023-03-19T03:17:37;98660.06;;;-1.46;69.90
69127;BME280;56688;50.234;19.292;2023-03-19T03:20:05;98656.59;;;-1.51;70.14
69127;BME280;56688;50.234;19.292;2023-03-19T03:22:33;98653.25;;;-1.56;70.30
69127;BME280;56688;50.234;19.292;2023-03-19T03:25:00;98655.25;;;-1.55;70.65
69127;BME280;56688;50.234;19.292;2023-03-19T03:27:29;98661.45;;;-1.51;70.72
69127;BME280;56688;50.234;19.292;2023-03-19T03:29:56;98665.27;;;-1.48;70.63
69127;BME280;56688;50.234;19.292;2023-03-19T03:32:23;98664.21;;;-1.46;70.86
69127;BME280;56688;50.234;19.292;2023-03-19T03:34:50;98662.73;;;-1.42;70.90
69127;BME280;56688;50.234;19.292;2023-03-19T03:37:17;98664.74;;;-1.41;70.78
69127;BME280;56688;50.234;19.292;2023-03-19T03:39:45;98667.70;;;-1.41;70.67
69127;BME280;56688;50.234;19.292;2023-03-19T03:42:12;98673.38;;;-1.42;70.80
69127;BME280;56688;50.234;19.292;2023-03-19T03:44:39;98674.30;;;-1.45;70.87
69127;BME280;56688;50.234;19.292;2023-03-19T03:47:07;98669.86;;;-1.49;70.96
69127;BME280;56688;50.234;19.292;2023-03-19T03:49:34;98669.89;;;-1.54;70.71
69127;BME280;56688;50.234;19.292;2023-03-19T03:52:01;98668.72;;;-1.62;70.84
69127;BME280;56688;50.234;19.292;2023-03-19T03:54:29;98673.40;;;-1.70;70.85
69127;BME280;56688;50.234;19.292;2023-03-19T03:56:56;98674.10;;;-1.74;71.10
69127;BME280;56688;50.234;19.292;2023-03-19T03:59:23;98672.42;;;-1.78;71.21
69127;BME280;56688;50.234;19.292;2023-03-19T04:01:51;98673.38;;;-1.76;71.47
69127;BME280;56688;50.234;19.292;2023-03-19T04:04:18;98667.96;;;-1.74;71.76
69127;BME280;56688;50.234;19.292;2023-03-19T04:06:46;98670.21;;;-1.71;71.92
69127;BME280;56688;50.234;19.292;2023-03-19T04:09:27;98672.50;;;-1.69;71.83
69127;BME280;56688;50.234;19.292;2023-03-19T04:11:54;98667.70;;;-1.67;71.89
69127;BME280;56688;50.234;19.292;2023-03-19T04:14:21;98666.80;;;-1.67;71.74
69127;BME280;56688;50.234;19.292;2023-03-19T04:16:48;98667.80;;;-1.69;71.57
69127;BME280;56688;50.234;19.292;2023-03-19T04:19:14;98667.26;;;-1.72;71.39
69127;BME280;56688;50.234;19.292;2023-03-19T04:21:42;98670.41;;;-1.74;71.49
69127;BME280;56688;50.234;19.292;2023-03-19T04:24:10;98674.84;;;-1.77;71.63
69127;BME280;56688;50.234;19.292;2023-03-19T04:26:38;98673.34;;;-1.83;71.12
69127;BME280;56688;50.234;19.292;2023-03-19T04:29:05;98676.43;;;-1.90;71.08
69127;BME280;56688;50.234;19.292;2023-03-19T04:31:35;98677.22;;;-1.99;70.98
69127;BME280;56688;50.234;19.292;2023-03-19T04:34:02;98673.91;;;-2.04;71.31
69127;BME280;56688;50.234;19.292;2023-03-19T04:36:28;98670.59;;;-2.07;71.63
69127;BME280;56688;50.234;19.292;2023-03-19T04:38:56;98670.80;;;-2.07;71.84
69127;BME280;56688;50.234;19.292;2023-03-19T04:41:24;98669.95;;;-2.05;72.02
69127;BME280;56688;50.234;19.292;2023-03-19T04:44:00;98672.76;;;-2.03;72.05
69127;BME280;56688;50.234;19.292;2023-03-19T04:46:28;98674.05;;;-2.02;71.84
69127;BME280;56688;50.234;19.292;2023-03-19T04:48:55;98675.27;;;-2.01;71.80
69127;BME280;56688;50.234;19.292;2023-03-19T04:51:22;98670.49;;;-2.03;71.77
69127;BME280;56688;50.234;19.292;2023-03-19T04:53:49;98667.48;;;-2.07;71.66
69127;BME280;56688;50.234;19.292;2023-03-19T04:56:16;98663.53;;;-2.13;71.70
69127;BME280;56688;50.234;19.292;2023-03-19T04:58:44;98668.35;;;-2.17;71.98
69127;BME280;56688;50.234;19.292;2023-03-19T05:01:11;98667.15;;;-2.20;72.25
69127;BME280;56688;50.234;19.292;2023-03-19T05:03:55;98665.77;;;-2.23;72.42
69127;BME280;56688;50.234;19.292;2023-03-19T05:06:23;98663.23;;;-2.24;72.32
69127;BME280;56688;50.234;19.292;2023-03-19T05:08:50;98660.86;;;-2.26;72.47
69127;BME280;56688;50.234;19.292;2023-03-19T05:11:17;98666.63;;;-2.26;72.66
69127;BME280;56688;50.234;19.292;2023-03-19T05:13:56;98666.02;;;-2.21;72.92
69127;BME280;56688;50.234;19.292;2023-03-19T05:16:23;98663.84;;;-2.20;72.60
69127;BME280;56688;50.234;19.292;2023-03-19T05:18:51;98664.55;;;-2.26;72.90
69127;BME280;56688;50.234;19.292;2023-03-19T05:21:19;98665.07;;;-2.28;73.00
69127;BME280;56688;50.234;19.292;2023-03-19T05:23:46;98672.61;;;-2.29;72.86
69127;BME280;56688;50.234;19.292;2023-03-19T05:26:17;98665.98;;;-2.29;73.00
69127;BME280;56688;50.234;19.292;2023-03-19T05:29:03;98664.64;;;-2.25;73.12
69127;BME280;56688;50.234;19.292;2023-03-19T05:31:38;98667.00;;;-2.20;73.22
69127;BME280;56688;50.234;19.292;2023-03-19T05:34:05;98670.21;;;-2.16;73.40
69127;BME280;56688;50.234;19.292;2023-03-19T05:36:32;98668.96;;;-2.11;73.39
69127;BME280;56688;50.234;19.292;2023-03-19T05:39:05;98675.56;;;-2.06;73.40
69127;BME280;56688;50.234;19.292;2023-03-19T05:41:34;98675.70;;;-1.98;73.61
69127;BME280;56688;50.234;19.292;2023-03-19T05:44:03;98673.25;;;-1.87;73.57
69127;BME280;56688;50.234;19.292;2023-03-19T05:46:40;98664.17;;;-1.77;73.84
69127;BME280;56688;50.234;19.292;2023-03-19T05:49:09;98668.43;;;-1.68;73.91
69127;BME280;56688;50.234;19.292;2023-03-19T05:51:36;98673.80;;;-1.55;73.95
69127;BME280;56688;50.234;19.292;2023-03-19T05:54:04;98671.38;;;-1.43;73.69
69127;BME280;56688;50.234;19.292;2023-03-19T05:56:34;98672.89;;;-1.35;73.53
69127;BME280;56688;50.234;19.292;2023-03-19T05:59:17;98669.03;;;-1.27;73.86
69127;BME280;56688;50.234;19.292;2023-03-19T06:01:51;98675.77;;;-1.16;74.15
69127;BME280;56688;50.234;19.292;2023-03-19T06:04:18;98674.02;;;-1.00;74.16
69127;BME280;56688;50.234;19.292;2023-03-19T06:06:45;98680.30;;;-0.81;74.44
69127;BME280;56688;50.234;19.292;2023-03-19T06:09:13;98677.96;;;-0.61;74.48
69127;BME280;56688;50.234;19.292;2023-03-19T06:11:42;98681.73;;;-0.39;74.18
69127;BME280;56688;50.234;19.292;2023-03-19T06:14:24;98680.88;;;-0.09;73.54
69127;BME280;56688;50.234;19.292;2023-03-19T06:17:12;98678.33;;;0.27;73.15
69127;BME280;56688;50.234;19.292;2023-03-19T06:19:39;98676.84;;;0.54;72.17
69127;BME280;56688;50.234;19.292;2023-03-19T06:22:07;98681.05;;;0.81;71.49
69127;BME280;56688;50.234;19.292;2023-03-19T06:24:34;98677.52;;;1.18;71.13
69127;BME280;56688;50.234;19.292;2023-03-19T06:27:02;98678.10;;;1.62;70.48
69127;BME280;56688;50.234;19.292;2023-03-19T06:29:30;98665.08;;;2.18;69.87
69127;BME280;56688;50.234;19.292;2023-03-19T06:32:01;98665.64;;;2.78;67.76
69127;BME280;56688;50.234;19.292;2023-03-19T06:34:37;98666.28;;;3.32;66.61
69127;BME280;56688;50.234;19.292;2023-03-19T06:37:04;98665.30;;;3.87;65.92
69127;BME280;56688;50.234;19.292;2023-03-19T06:39:31;98667.53;;;4.44;64.32
69127;BME280;56688;50.234;19.292;2023-03-19T06:41:58;98672.73;;;4.93;62.51
69127;BME280;56688;50.234;19.292;2023-03-19T06:44:25;98675.36;;;5.31;61.35
69127;BME280;56688;50.234;19.292;2023-03-19T06:46:52;98675.40;;;5.87;59.75
69127;BME280;56688;50.234;19.292;2023-03-19T06:49:19;98669.15;;;6.44;57.64
69127;BME280;56688;50.234;19.292;2023-03-19T06:51:47;98672.96;;;6.85;56.76
69127;BME280;56688;50.234;19.292;2023-03-19T06:54:14;98666.06;;;7.40;55.11
69127;BME280;56688;50.234;19.292;2023-03-19T06:56:41;98666.86;;;8.16;53.79
69127;BME280;56688;50.234;19.292;2023-03-19T06:59:08;98665.02;;;8.93;51.44
69127;BME280;56688;50.234;19.292;2023-03-19T07:01:40;98670.90;;;9.64;48.74
69127;BME280;56688;50.234;19.292;2023-03-19T07:04:08;98669.80;;;10.28;47.46
69127;BME280;56688;50.234;19.292;2023-03-19T07:06:35;98662.21;;;11.04;45.96
69127;BME280;56688;50.234;19.292;2023-03-19T07:09:02;98664.79;;;11.77;44.06
69127;BME280;56688;50.234;19.292;2023-03-19T07:11:29;98663.05;;;12.48;42.49
69127;BME280;56688;50.234;19.292;2023-03-19T07:14:00;98655.09;;;13.15;40.49
69127;BME280;56688;50.234;19.292;2023-03-19T07:16:27;98649.79;;;13.71;39.78
69127;BME280;56688;50.234;19.292;2023-03-19T07:18:54;98648.42;;;14.23;38.57
69127;BME280;56688;50.234;19.292;2023-03-19T07:21:22;98649.38;;;14.72;37.23
69127;BME280;56688;50.234;19.292;2023-03-19T07:23:49;98642.66;;;15.17;36.40
69127;BME280;56688;50.234;19.292;2023-03-19T07:26:16;98643.80;;;15.62;35.37
69127;BME280;56688;50.234;19.292;2023-03-19T07:28:43;98646.42;;;16.08;34.46
69127;BME280;56688;50.234;19.292;2023-03-19T07:31:10;98641.72;;;16.43;33.50
69127;BME280;56688;50.234;19.292;2023-03-19T07:33:37;98644.95;;;16.65;33.24
69127;BME280;56688;50.234;19.292;2023-03-19T07:36:04;98643.45;;;16.81;32.56
69127;BME280;56688;50.234;19.292;2023-03-19T07:38:31;98639.79;;;16.94;32.78
69127;BME280;56688;50.234;19.292;2023-03-19T07:40:58;98649.78;;;17.15;32.09
69127;BME280;56688;50.234;19.292;2023-03-19T07:43:29;98651.33;;;17.28;31.71
69127;BME280;56688;50.234;19.292;2023-03-19T07:45:57;98649.98;;;17.44;31.97
69127;BME280;56688;50.234;19.292;2023-03-19T07:48:24;98648.05;;;17.40;30.46
69127;BME280;56688;50.234;19.292;2023-03-19T07:50:51;98645.76;;;17.24;30.77
69127;BME280;56688;50.234;19.292;2023-03-19T07:53:18;98647.82;;;17.02;31.16
69127;BME280;56688;50.234;19.292;2023-03-19T07:55:46;98642.15;;;16.90;31.40
69127;BME280;56688;50.234;19.292;2023-03-19T07:58:13;98644.48;;;16.98;31.58
69127;BME280;56688;50.234;19.292;2023-03-19T08:00:41;98650.28;;;17.18;31.46
69127;BME280;56688;50.234;19.292;2023-03-19T08:03:08;98650.55;;;17.48;31.35
69127;BME280;56688;50.234;19.292;2023-03-19T08:05:34;98649.86;;;17.84;30.50
69127;BME280;56688;50.234;19.292;2023-03-19T08:08:01;98648.09;;;18.21;30.26
69127;BME280;56688;50.234;19.292;2023-03-19T08:10:28;98642.77;;;18.59;29.02
69127;BME280;56688;50.234;19.292;2023-03-19T08:12:55;98636.11;;;18.83;28.73
69127;BME280;56688;50.234;19.292;2023-03-19T08:15:22;98633.77;;;18.85;27.73
69127;BME280;56688;50.234;19.292;2023-03-19T08:17:56;98636.15;;;18.86;27.77
69127;BME280;56688;50.234;19.292;2023-03-19T08:20:23;98635.46;;;19.18;28.14
69127;BME280;56688;50.234;19.292;2023-03-19T08:22:50;98628.15;;;19.64;27.37
69127;BME280;56688;50.234;19.292;2023-03-19T08:25:17;98626.77;;;20.08;27.04
69127;BME280;56688;50.234;19.292;2023-03-19T08:27:44;98622.77;;;20.61;26.55
69127;BME280;56688;50.234;19.292;2023-03-19T08:30:12;98623.40;;;21.01;26.11
69127;BME280;56688;50.234;19.292;2023-03-19T08:32:39;98622.16;;;21.38;25.68
69127;BME280;56688;50.234;19.292;2023-03-19T08:35:06;98628.20;;;21.78;24.64
69127;BME280;56688;50.234;19.292;2023-03-19T08:37:33;98624.33;;;21.90;24.04
69127;BME280;56688;50.234;19.292;2023-03-19T08:40:00;98626.15;;;21.74;24.08
69127;BME280;56688;50.234;19.292;2023-03-19T08:42:27;98619.21;;;21.30;24.14
69127;BME280;56688;50.234;19.292;2023-03-19T08:44:54;98619.35;;;20.77;24.98
69127;BME280;56688;50.234;19.292;2023-03-19T08:47:21;98619.37;;;20.55;25.58
69127;BME280;56688;50.234;19.292;2023-03-19T08:49:50;98622.36;;;20.66;25.72
69127;BME280;56688;50.234;19.292;2023-03-19T08:52:18;98622.34;;;20.81;25.43
69127;BME280;56688;50.234;19.292;2023-03-19T08:54:46;98622.40;;;20.99;25.01
69127;BME280;56688;50.234;19.292;2023-03-19T08:57:13;98622.60;;;21.20;24.96
69127;BME280;56688;50.234;19.292;2023-03-19T08:59:39;98622.87;;;21.31;24.13
69127;BME280;56688;50.234;19.292;2023-03-19T09:02:09;98617.16;;;21.46;23.97
69127;BME280;56688;50.234;19.292;2023-03-19T09:04:36;98620.04;;;21.73;24.16
69127;BME280;56688;50.234;19.292;2023-03-19T09:07:04;98618.30;;;22.08;23.68
69127;BME280;56688;50.234;19.292;2023-03-19T09:09:31;98618.75;;;22.16;23.24
69127;BME280;56688;50.234;19.292;2023-03-19T09:11:58;98613.65;;;22.17;23.03
69127;BME280;56688;50.234;19.292;2023-03-19T09:14:25;98611.56;;;22.23;23.30
69127;BME280;56688;50.234;19.292;2023-03-19T09:16:52;98614.20;;;22.25;22.75
69127;BME280;56688;50.234;19.292;2023-03-19T09:19:21;98614.63;;;22.26;22.67
69127;BME280;56688;50.234;19.292;2023-03-19T09:21:49;98614.04;;;22.13;22.45
69127;BME280;56688;50.234;19.292;2023-03-19T09:24:17;98612.84;;;21.96;22.87
69127;BME280;56688;50.234;19.292;2023-03-19T09:26:45;98612.21;;;21.73;23.15
69127;BME280;56688;50.234;19.292;2023-03-19T09:29:12;98613.94;;;21.55;22.90
69127;BME280;56688;50.234;19.292;2023-03-19T09:31:39;98609.77;;;21.27;23.81
69127;BME280;56688;50.234;19.292;2023-03-19T09:34:07;98605.77;;;21.07;23.85
69127;BME280;56688;50.234;19.292;2023-03-19T09:36:35;98608.50;;;20.62;23.96
69127;BME280;56688;50.234;19.292;2023-03-19T09:39:04;98617.17;;;20.19;24.61
69127;BME280;56688;50.234;19.292;2023-03-19T09:44:26;98620.50;;;19.84;25.52
69127;BME280;56688;50.234;19.292;2023-03-19T09:47:01;98618.35;;;19.88;25.99
69127;BME280;56688;50.234;19.292;2023-03-19T09:49:37;98617.52;;;19.92;25.34
69127;BME280;56688;50.234;19.292;2023-03-19T09:54:50;98616.81;;;19.62;25.44
69127;BME280;56688;50.234;19.292;2023-03-19T09:57:18;98612.55;;;19.38;26.87
69127;BME280;56688;50.234;19.292;2023-03-19T09:59:46;98602.18;;;19.36;26.47
69127;BME280;56688;50.234;19.292;2023-03-19T10:12:38;98598.54;;;19.05;26.67
69127;BME280;56688;50.234;19.292;2023-03-19T10:18:10;98594.73;;;19.02;27.99
69127;BME280;56688;50.234;19.292;2023-03-19T10:25:55;98581.98;;;18.73;27.16
69127;BME280;56688;50.234;19.292;2023-03-19T10:28:26;98574.70;;;18.63;27.42
69127;BME280;56688;50.234;19.292;2023-03-19T10:33:42;98578.92;;;18.31;27.90
69127;BME280;56688;50.234;19.292;2023-03-19T10:36:10;98574.55;;;18.31;27.85
69127;BME280;56688;50.234;19.292;2023-03-19T10:38:42;98569.96;;;18.45;27.63
69127;BME280;56688;50.234;19.292;2023-03-19T10:44:05;98571.17;;;18.45;27.88
69127;BME280;56688;50.234;19.292;2023-03-19T10:46:37;98571.75;;;18.42;27.87
69127;BME280;56688;50.234;19.292;2023-03-19T10:49:10;98570.65;;;18.33;27.91
69127;BME280;56688;50.234;19.292;2023-03-19T10:51:38;98568.49;;;18.39;27.88
69127;BME280;56688;50.234;19.292;2023-03-19T10:54:21;98565.98;;;18.51;28.44
69127;BME280;56688;50.234;19.292;2023-03-19T10:56:49;98562.16;;;18.71;27.89
69127;BME280;56688;50.234;19.292;2023-03-19T10:59:30;98562.90;;;18.80;28.67
69127;BME280;56688;50.234;19.292;2023-03-19T11:02:02;98555.59;;;18.80;27.86
69127;BME280;56688;50.234;19.292;2023-03-19T11:04:33;98545.80;;;18.81;27.60
69127;BME280;56688;50.234;19.292;2023-03-19T11:07:07;98547.05;;;18.77;27.93
69127;BME280;56688;50.234;19.292;2023-03-19T11:09:40;98546.96;;;18.57;27.00
69127;BME280;56688;50.234;19.292;2023-03-19T11:12:26;98545.85;;;18.43;28.10
69127;BME280;56688;50.234;19.292;2023-03-19T11:14:56;98540.33;;;18.50;27.89
69127;BME280;56688;50.234;19.292;2023-03-19T11:17:35;98531.51;;;18.60;26.56
69127;BME280;56688;50.234;19.292;2023-03-19T11:22:48;98523.96;;;19.03;27.64
69127;BME280;56688;50.234;19.292;2023-03-19T11:25:25;98519.68;;;19.10;26.58
69127;BME280;56688;50.234;19.292;2023-03-19T11:27:59;98515.45;;;19.13;27.07
69127;BME280;56688;50.234;19.292;2023-03-19T11:30:35;98511.84;;;19.27;26.98
69127;BME280;56688;50.234;19.292;2023-03-19T11:33:08;98503.76;;;19.51;27.68
69127;BME280;56688;50.234;19.292;2023-03-19T11:35:49;98503.48;;;19.83;26.78
69127;BME280;56688;50.234;19.292;2023-03-19T11:38:30;98501.36;;;20.09;26.50
69127;BME280;56688;50.234;19.292;2023-03-19T11:43:53;98500.56;;;20.22;25.06
69127;BME280;56688;50.234;19.292;2023-03-19T11:46:42;98498.94;;;20.30;25.10
69127;BME280;56688;50.234;19.292;2023-03-19T11:49:32;98496.45;;;20.34;25.23
69127;BME280;56688;50.234;19.292;2023-03-19T11:57:08;98484.08;;;20.63;24.82
69127;BME280;56688;50.234;19.292;2023-03-19T12:02:47;98477.42;;;20.89;24.25
69127;BME280;56688;50.234;19.292;2023-03-19T12:05:23;98472.05;;;20.80;24.90
69127;BME280;56688;50.234;19.292;2023-03-19T12:08:06;98466.34;;;20.64;24.36
69127;BME280;56688;50.234;19.292;2023-03-19T12:26:37;98450.02;;;20.90;25.17
69127;BME280;56688;50.234;19.292;2023-03-19T12:31:52;98443.45;;;20.81;24.54
69127;BME280;56688;50.234;19.292;2023-03-19T12:34:35;98445.31;;;20.88;24.11
69127;BME280;56688;50.234;19.292;2023-03-19T12:37:29;98443.61;;;21.08;24.10
69127;BME280;56688;50.234;19.292;2023-03-19T12:40:04;98440.60;;;21.28;23.83
69127;BME280;56688;50.234;19.292;2023-03-19T12:42:38;98438.73;;;21.39;23.93
69127;BME280;56688;50.234;19.292;2023-03-19T12:45:30;98440.48;;;21.53;23.75
69127;BME280;56688;50.234;19.292;2023-03-19T12:48:06;98436.23;;;21.59;23.82
69127;BME280;56688;50.234;19.292;2023-03-19T12:50:38;98432.93;;;21.62;24.34
69127;BME280;56688;50.234;19.292;2023-03-19T12:55:56;98429.36;;;21.81;23.99
69127;BME280;56688;50.234;19.292;2023-03-19T12:58:32;98425.73;;;21.97;23.45
69127;BME280;56688;50.234;19.292;2023-03-19T13:01:05;98421.84;;;22.07;23.38
69127;BME280;56688;50.234;19.292;2023-03-19T13:03:41;98421.45;;;22.10;22.52
69127;BME280;56688;50.234;19.292;2023-03-19T13:06:16;98422.00;;;22.29;23.09
69127;BME280;56688;50.234;19.292;2023-03-19T13:09:04;98417.57;;;22.47;22.59
69127;BME280;56688;50.234;19.292;2023-03-19T13:14:10;98417.04;;;22.55;22.80
69127;BME280;56688;50.234;19.292;2023-03-19T13:16:58;98415.46;;;22.27;22.99
69127;BME280;56688;50.234;19.292;2023-03-19T13:19:33;98410.98;;;22.10;22.94
69127;BME280;56688;50.234;19.292;2023-03-19T13:22:10;98409.97;;;21.98;23.50
69127;BME280;56688;50.234;19.292;2023-03-19T13:24:39;98406.98;;;21.98;23.60
69127;BME280;56688;50.234;19.292;2023-03-19T13:27:16;98400.19;;;21.88;23.64
69127;BME280;56688;50.234;19.292;2023-03-19T13:32:43;98406.16;;;21.68;23.92
69127;BME280;56688;50.234;19.292;2023-03-19T13:37:42;98411.42;;;21.43;24.21
69127;BME280;56688;50.234;19.292;2023-03-19T13:48:50;98404.80;;;21.78;24.10
69127;BME280;56688;50.234;19.292;2023-03-19T13:56:20;98398.21;;;21.76;24.14
69127;BME280;56688;50.234;19.292;2023-03-19T14:01:44;98398.50;;;21.53;24.60
69127;BME280;56688;50.234;19.292;2023-03-19T14:06:50;98392.67;;;21.05;25.18
69127;BME280;56688;50.234;19.292;2023-03-19T14:09:35;98391.42;;;21.04;24.94
69127;BME280;56688;50.234;19.292;2023-03-19T14:14:44;98385.27;;;21.30;25.09
69127;BME280;56688;50.234;19.292;2023-03-19T14:17:15;98382.18;;;21.43;24.70
69127;BME280;56688;50.234;19.292;2023-03-19T14:19:45;98384.75;;;21.45;24.47
69127;BME280;56688;50.234;19.292;2023-03-19T14:28:09;98371.32;;;21.63;24.18
69127;BME280;56688;50.234;19.292;2023-03-19T14:30:38;98366.59;;;21.53;24.73
69127;BME280;56688;50.234;19.292;2023-03-19T14:33:16;98373.45;;;21.38;24.54
69127;BME280;56688;50.234;19.292;2023-03-19T14:35:44;98373.29;;;21.01;24.76
69127;BME280;56688;50.234;19.292;2023-03-19T14:38:25;98373.51;;;20.64;25.23
69127;BME280;56688;50.234;19.292;2023-03-19T14:40:55;98371.72;;;20.32;25.49
69127;BME280;56688;50.234;19.292;2023-03-19T14:54:41;98357.77;;;19.45;26.65
69127;BME280;56688;50.234;19.292;2023-03-19T14:57:18;98368.16;;;19.33;26.70
69127;BME280;56688;50.234;19.292;2023-03-19T14:59:47;98370.48;;;19.22;26.86